createdAt,value
2018-01-06T00:01:27.790Z,2.30
2018-01-06T00:03:55.773Z,3.17
2018-01-06T00:06:24.116Z,3.00
2018-01-06T00:08:52.463Z,2.17
2018-01-06T00:11:21.652Z,2.17
2018-01-06T00:13:49.259Z,2.53
2018-01-06T00:16:18.024Z,1.70
2018-01-06T00:18:45.600Z,1.77
2018-01-06T00:21:14.178Z,2.00
2018-01-06T00:23:42.518Z,1.83
2018-01-06T00:26:10.843Z,2.23
2018-01-06T00:28:39.228Z,2.30
2018-01-06T00:31:07.510Z,2.20
2018-01-06T00:33:35.859Z,2.33
2018-01-06T00:36:04.179Z,3.40
2018-01-06T00:38:32.498Z,3.10
2018-01-06T00:41:01.049Z,3.20
2018-01-06T00:43:29.038Z,3.33
2018-01-06T00:45:58.287Z,2.97
2018-01-06T00:48:25.859Z,4.40
2018-01-06T00:50:54.137Z,3.80
2018-01-06T00:53:22.469Z,3.73
2018-01-06T00:55:50.767Z,4.00
2018-01-06T00:58:19.813Z,2.60
2018-01-06T01:00:47.345Z,2.87
2018-01-06T01:03:14.866Z,1.90
2018-01-06T01:05:42.807Z,2.23
2018-01-06T01:08:11.104Z,2.70
2018-01-06T01:10:39.404Z,2.90
2018-01-06T01:13:07.736Z,2.70
2018-01-06T01:15:36.218Z,2.90
2018-01-06T01:18:04.508Z,2.50
2018-01-06T01:20:32.937Z,2.47
2018-01-06T01:23:01.954Z,2.80
2018-01-06T01:25:29.493Z,2.90
2018-01-06T01:27:57.779Z,3.20
2018-01-06T01:30:26.327Z,2.70
2018-01-06T01:32:54.612Z,2.73
2018-01-06T01:35:22.921Z,2.63
2018-01-06T01:37:50.441Z,2.50
2018-01-06T01:40:17.972Z,3.67
2018-01-06T01:42:45.502Z,2.80
2018-01-06T01:45:13.800Z,3.00
2018-01-06T01:47:41.708Z,3.00
2018-01-06T01:50:09.258Z,3.83
2018-01-06T01:52:36.766Z,3.97
2018-01-06T01:55:04.334Z,4.23
2018-01-06T01:57:31.858Z,3.30
2018-01-06T01:59:59.644Z,4.00
2018-01-06T02:02:27.160Z,4.10
2018-01-06T02:04:54.689Z,4.60
2018-01-06T02:07:22.209Z,4.33
2018-01-06T02:12:47.969Z,3.40
2018-01-06T02:15:15.501Z,4.30
2018-01-06T02:17:43.020Z,4.50
2018-01-06T02:20:10.558Z,4.60
2018-01-06T02:22:38.078Z,4.67
2018-01-06T02:25:06.554Z,4.97
2018-01-06T02:27:34.079Z,5.90
2018-01-06T02:30:01.609Z,6.00
2018-01-06T02:32:29.916Z,6.43
2018-01-06T02:34:57.430Z,5.97
2018-01-06T02:37:24.972Z,6.20
2018-01-06T02:39:53.254Z,6.10
2018-01-06T02:42:20.792Z,5.77
2018-01-06T02:44:48.309Z,6.37
2018-01-06T02:47:16.609Z,6.57
2018-01-06T02:49:44.124Z,6.80
2018-01-06T02:52:11.678Z,6.50
2018-01-06T02:54:39.202Z,7.23
2018-01-06T02:57:06.750Z,6.50
2018-01-06T02:59:35.035Z,6.40
2018-01-06T03:02:02.567Z,7.90
2018-01-06T03:04:30.072Z,6.83
2018-01-06T03:06:59.469Z,6.30
2018-01-06T03:09:27.007Z,7.80
2018-01-06T03:11:54.537Z,7.57
2018-01-06T03:14:22.859Z,7.20
2018-01-06T03:16:50.395Z,8.20
2018-01-06T03:19:17.917Z,7.20
2018-01-06T03:21:45.726Z,7.60
2018-01-06T03:24:13.241Z,7.20
2018-01-06T03:26:40.776Z,6.30
2018-01-06T03:29:08.293Z,6.63
2018-01-06T03:31:35.832Z,7.00
2018-01-06T03:34:04.113Z,7.10
2018-01-06T03:36:32.421Z,6.50
2018-01-06T03:38:59.938Z,6.93
2018-01-06T03:41:29.072Z,6.50
2018-01-06T03:43:56.593Z,6.43
2018-01-06T03:46:24.134Z,7.60
2018-01-06T03:48:52.408Z,6.70
2018-01-06T03:51:19.925Z,7.23
2018-01-06T03:53:47.453Z,6.83
2018-01-06T03:56:14.977Z,6.00
2018-01-06T03:58:42.518Z,6.70
2018-01-06T04:01:10.033Z,6.30
2018-01-06T04:03:38.289Z,5.60
2018-01-06T04:06:05.808Z,6.30
2018-01-06T04:08:33.337Z,5.30
2018-01-06T04:11:00.861Z,5.10
2018-01-06T04:13:29.178Z,5.30
2018-01-06T04:15:57.454Z,5.10
2018-01-06T04:18:24.984Z,5.50
2018-01-06T04:20:52.513Z,4.80
2018-01-06T04:23:20.977Z,5.60
2018-01-06T04:25:48.496Z,5.30
2018-01-06T04:28:16.472Z,5.57
2018-01-06T04:30:44.685Z,5.10
2018-01-06T04:33:12.211Z,7.10
2018-01-06T04:35:39.712Z,5.90
2018-01-06T04:38:07.274Z,6.00
2018-01-06T04:40:34.776Z,5.90
2018-01-06T04:43:02.316Z,5.87
2018-01-06T04:45:29.829Z,7.20
2018-01-06T04:47:57.361Z,6.53
2018-01-06T04:50:24.893Z,5.70
2018-01-06T04:52:52.430Z,5.90
2018-01-06T04:55:19.949Z,5.00
2018-01-06T04:57:48.004Z,5.60
2018-01-06T05:00:15.508Z,5.83
2018-01-06T05:02:43.009Z,6.30
2018-01-06T05:05:11.733Z,5.93
2018-01-06T05:07:39.246Z,6.10
2018-01-06T05:10:06.777Z,5.87
2018-01-06T05:12:34.295Z,5.70
2018-01-06T05:15:01.817Z,5.00
2018-01-06T05:17:29.327Z,5.50
2018-01-06T05:19:56.844Z,5.13
2018-01-06T05:22:24.349Z,6.80
2018-01-06T05:24:51.889Z,6.70
2018-01-06T05:27:19.392Z,7.00
2018-01-06T05:29:47.741Z,6.53
2018-01-06T05:32:15.249Z,7.00
2018-01-06T05:34:43.224Z,8.63
2018-01-06T05:37:11.230Z,8.00
2018-01-06T05:39:39.284Z,6.93
2018-01-06T05:42:06.783Z,7.27
2018-01-06T05:44:35.084Z,6.83
2018-01-06T05:47:02.612Z,8.40
2018-01-06T05:49:30.394Z,6.83
2018-01-06T05:51:57.911Z,6.73
2018-01-06T05:54:25.454Z,7.40
2018-01-06T05:56:53.686Z,6.13
2018-01-06T05:59:21.226Z,6.70
2018-01-06T06:01:48.733Z,6.37
2018-01-06T06:04:16.257Z,6.17
2018-01-06T06:06:43.755Z,6.30
2018-01-06T06:09:11.292Z,7.63
2018-01-06T06:11:38.802Z,7.30
2018-01-06T06:14:06.337Z,6.57
2018-01-06T06:16:33.872Z,6.77
2018-01-06T06:19:01.396Z,7.00
2018-01-06T06:21:28.922Z,7.20
2018-01-06T06:23:56.420Z,7.10
2018-01-06T06:26:25.466Z,7.73
2018-01-06T06:28:53.208Z,8.30
2018-01-06T06:31:21.510Z,7.40
2018-01-06T06:33:49.024Z,9.00
2018-01-06T06:36:16.558Z,8.03
2018-01-06T06:38:44.069Z,7.87
2018-01-06T06:41:11.610Z,8.00
2018-01-06T06:43:39.116Z,6.57
2018-01-06T06:46:06.651Z,7.47
2018-01-06T06:48:34.173Z,7.23
2018-01-06T06:51:01.705Z,7.20
2018-01-06T06:53:29.208Z,8.00
2018-01-06T06:55:57.652Z,7.10
2018-01-06T06:58:25.165Z,7.27
2018-01-06T07:00:53.453Z,7.17
2018-01-06T07:03:20.970Z,6.93
2018-01-06T07:05:48.508Z,6.33
2018-01-06T07:08:16.020Z,6.40
2018-01-06T07:10:44.312Z,6.70
2018-01-06T07:13:12.212Z,6.90
2018-01-06T07:15:39.736Z,6.60
2018-01-06T07:18:07.988Z,6.07
2018-01-06T07:20:36.293Z,7.13
2018-01-06T07:23:03.818Z,6.40
2018-01-06T07:25:32.157Z,6.37
2018-01-06T07:27:59.669Z,6.83
2018-01-06T07:30:27.185Z,8.43
2018-01-06T07:32:55.454Z,6.60
2018-01-06T07:35:22.965Z,6.50
2018-01-06T07:37:51.253Z,6.80
2018-01-06T07:40:19.530Z,5.67
2018-01-06T07:42:47.066Z,5.33
2018-01-06T07:45:15.065Z,5.13
2018-01-06T07:47:42.605Z,5.97
2018-01-06T07:50:10.876Z,6.13
2018-01-06T07:52:38.409Z,5.97
2018-01-06T07:55:05.921Z,5.67
2018-01-06T07:57:33.458Z,5.63
2018-01-06T08:00:01.733Z,5.73
2018-01-06T08:02:29.259Z,7.50
2018-01-06T08:04:56.766Z,7.20
2018-01-06T08:07:25.577Z,8.17
2018-01-06T08:09:53.093Z,7.87
2018-01-06T08:12:20.638Z,10.30
2018-01-06T08:14:48.976Z,8.97
2018-01-06T08:17:16.527Z,6.97
2018-01-06T08:19:44.040Z,7.63
2018-01-06T08:22:11.572Z,8.03
2018-01-06T08:24:39.088Z,7.70
2018-01-06T08:27:06.678Z,8.60
2018-01-06T08:29:34.154Z,8.20
2018-01-06T08:32:01.713Z,8.43
2018-01-06T08:34:29.264Z,8.57
2018-01-06T08:36:56.799Z,6.80
2018-01-06T08:39:25.085Z,7.80
2018-01-06T08:41:52.623Z,8.37
2018-01-06T08:44:20.133Z,8.67
2018-01-06T08:46:47.669Z,8.30
2018-01-06T08:49:15.199Z,9.70
2018-01-06T08:51:43.509Z,9.70
2018-01-06T08:54:11.039Z,10.20
2018-01-06T08:56:39.385Z,10.17
2018-01-06T08:59:06.916Z,11.20
2018-01-06T09:01:34.453Z,9.57
2018-01-06T09:04:02.746Z,11.53
2018-01-06T09:06:30.266Z,11.40
2018-01-06T09:08:57.836Z,13.33
2018-01-06T09:11:26.121Z,10.97
2018-01-06T09:13:54.597Z,11.77
2018-01-06T09:16:22.123Z,12.67
2018-01-06T09:18:49.657Z,13.03
2018-01-06T09:21:17.981Z,11.23
2018-01-06T09:23:45.516Z,9.00
2018-01-06T09:26:13.043Z,8.87
2018-01-06T09:28:40.589Z,10.20
2018-01-06T09:31:08.507Z,10.23
2018-01-06T09:33:36.049Z,11.07
2018-01-06T09:36:03.967Z,12.73
2018-01-06T09:38:32.276Z,13.70
2018-01-06T09:40:59.801Z,12.27
2018-01-06T09:43:27.350Z,13.43
2018-01-06T09:45:54.868Z,12.43
2018-01-06T09:48:22.457Z,13.77
2018-01-06T09:50:50.741Z,14.23
2018-01-06T09:53:18.280Z,15.03
2018-01-06T09:55:45.798Z,13.10
2018-01-06T09:58:14.112Z,14.23
2018-01-06T10:00:41.639Z,13.83
2018-01-06T10:03:09.953Z,14.47
2018-01-06T10:05:37.469Z,16.47
2018-01-06T10:08:05.663Z,13.43
2018-01-06T10:10:33.198Z,13.20
2018-01-06T10:13:00.760Z,13.00
2018-01-06T10:15:28.284Z,12.20
2018-01-06T10:17:56.210Z,13.80
2018-01-06T10:20:23.756Z,13.20
2018-01-06T10:22:52.384Z,12.37
2018-01-06T10:25:19.935Z,12.60
2018-01-06T10:27:47.786Z,11.17
2018-01-06T10:30:15.327Z,12.40
2018-01-06T10:32:43.604Z,12.27
2018-01-06T10:35:13.244Z,11.63
2018-01-06T10:37:40.757Z,16.00
2018-01-06T10:40:08.293Z,13.50
2018-01-06T10:42:36.700Z,12.17
2018-01-06T10:45:05.176Z,11.63
2018-01-06T10:47:32.738Z,10.60
2018-01-06T10:50:00.997Z,10.10
2018-01-06T10:52:28.524Z,9.70
2018-01-06T10:54:56.073Z,8.83
2018-01-06T10:57:23.597Z,8.57
2018-01-06T10:59:51.141Z,6.73
2018-01-06T11:02:18.660Z,7.40
2018-01-06T11:04:47.033Z,5.87
2018-01-06T11:07:14.557Z,5.40
2018-01-06T11:09:42.769Z,3.60
2018-01-06T11:12:10.288Z,4.23
2018-01-06T11:14:37.868Z,5.50
2018-01-06T11:17:05.389Z,4.90
2018-01-06T11:19:33.333Z,4.10
2018-01-06T11:22:01.628Z,4.23
2018-01-06T11:24:29.949Z,4.00
2018-01-06T11:26:58.246Z,4.03
2018-01-06T11:29:26.544Z,3.70
2018-01-06T11:31:55.375Z,3.83
2018-01-06T11:34:23.666Z,4.53
2018-01-06T11:36:51.974Z,3.67
2018-01-06T11:39:20.366Z,3.70
2018-01-06T11:41:48.669Z,3.70
2018-01-06T11:44:16.950Z,3.10
2018-01-06T11:46:45.262Z,3.50
2018-01-06T11:49:13.547Z,3.43
2018-01-06T11:51:42.169Z,3.77
2018-01-06T11:54:10.078Z,3.17
2018-01-06T11:56:37.624Z,3.70
2018-01-06T11:59:05.542Z,3.00
2018-01-06T12:01:33.841Z,3.37
2018-01-06T12:04:02.897Z,4.00
2018-01-06T12:06:30.829Z,3.60
2018-01-06T12:08:59.080Z,3.80
2018-01-06T12:11:27.381Z,2.77
2018-01-06T12:13:55.718Z,2.53
2018-01-06T12:16:24.024Z,1.60
2018-01-06T12:18:52.336Z,1.70
2018-01-06T12:21:20.671Z,1.80
2018-01-06T12:23:48.961Z,3.97
2018-01-06T12:26:17.256Z,4.87
2018-01-06T12:28:45.609Z,2.50
2018-01-06T12:31:13.955Z,2.00
2018-01-06T12:33:42.280Z,3.60
2018-01-06T12:36:10.569Z,2.43
2018-01-06T12:38:38.973Z,2.27
2018-01-06T12:41:07.299Z,1.80
2018-01-06T12:43:35.564Z,3.03
2018-01-06T12:46:03.111Z,8.07
2018-01-06T12:48:31.045Z,5.87
2018-01-06T12:51:00.208Z,5.13
2018-01-06T12:53:27.737Z,5.40
2018-01-06T12:55:56.121Z,2.50
2018-01-06T12:58:24.542Z,7.40
2018-01-06T13:00:52.820Z,11.10
2018-01-06T13:03:21.139Z,17.07
2018-01-06T13:05:49.426Z,14.80
2018-01-06T13:08:17.736Z,17.43
2018-01-06T13:10:46.015Z,7.00
2018-01-06T13:13:13.554Z,2.50
2018-01-06T13:15:41.473Z,3.60
2018-01-06T13:18:09.776Z,10.37
2018-01-06T13:20:38.065Z,6.63
2018-01-06T13:23:06.514Z,5.60
2018-01-06T13:25:34.804Z,10.10
2018-01-06T13:28:03.101Z,7.50
2018-01-06T13:30:31.372Z,3.97
2018-01-06T13:32:59.690Z,6.90
2018-01-06T13:35:28.278Z,2.50
2018-01-06T13:37:56.581Z,2.10
2018-01-06T13:40:24.864Z,2.17
2018-01-06T13:42:53.172Z,3.50
2018-01-06T13:45:21.450Z,2.30
2018-01-06T13:47:49.753Z,2.17
2018-01-06T13:50:18.039Z,1.90
2018-01-06T13:52:46.344Z,2.03
2018-01-06T13:55:14.696Z,1.90
2018-01-06T13:57:42.994Z,1.90
2018-01-06T14:00:10.498Z,2.17
2018-01-06T14:02:38.434Z,2.47
2018-01-06T14:05:07.117Z,2.23
2018-01-06T14:07:35.937Z,2.23
2018-01-06T14:10:03.478Z,1.90
2018-01-06T14:12:31.852Z,2.70
2018-01-06T14:15:00.233Z,2.23
2018-01-06T14:17:28.474Z,3.63
2018-01-06T14:19:56.774Z,2.73
2018-01-06T14:22:25.047Z,2.20
2018-01-06T14:24:53.820Z,3.70
2018-01-06T14:27:22.812Z,4.23
2018-01-06T14:29:50.341Z,3.83
2018-01-06T14:32:18.254Z,3.93
2018-01-06T14:34:47.922Z,3.43
2018-01-06T14:37:16.226Z,2.90
2018-01-06T14:39:43.752Z,2.17
2018-01-06T14:42:11.669Z,2.30
2018-01-06T14:44:40.007Z,3.40
2018-01-06T14:47:08.285Z,2.73
2018-01-06T14:49:37.445Z,2.70
2018-01-06T14:52:04.991Z,2.43
2018-01-06T14:54:33.521Z,2.43
2018-01-06T14:57:01.535Z,2.40
2018-01-06T14:59:29.845Z,1.97
2018-01-06T15:01:58.868Z,1.90
2018-01-06T15:04:26.463Z,1.80
2018-01-06T15:06:54.740Z,1.90
2018-01-06T15:09:22.259Z,2.07
2018-01-06T15:11:50.239Z,2.10
2018-01-06T15:14:18.542Z,1.73
2018-01-06T15:16:47.852Z,1.83
2018-01-06T15:19:15.825Z,2.20
2018-01-06T15:21:43.329Z,2.23
2018-01-06T15:24:11.760Z,2.60
2018-01-06T15:26:40.045Z,2.13
2018-01-06T15:29:08.342Z,1.93
2018-01-06T15:31:36.660Z,2.00
2018-01-06T15:34:05.268Z,2.70
2018-01-06T15:36:33.560Z,2.10
2018-01-06T15:39:02.971Z,1.97
2018-01-06T15:41:31.272Z,2.03
2018-01-06T15:43:59.083Z,2.23
2018-01-06T15:46:26.617Z,2.10
2018-01-06T15:48:54.955Z,2.00
2018-01-06T15:51:23.298Z,2.20
2018-01-06T15:53:52.156Z,2.60
2018-01-06T15:56:20.080Z,3.10
2018-01-06T15:58:48.377Z,4.03
2018-01-06T16:01:16.669Z,3.63
2018-01-06T16:03:44.957Z,6.40
2018-01-06T16:06:14.268Z,8.67
2018-01-06T16:08:41.784Z,6.43
2018-01-06T16:11:09.797Z,5.10
2018-01-06T16:13:38.109Z,5.90
2018-01-06T16:16:06.722Z,4.57
2018-01-06T16:18:34.665Z,4.53
2018-01-06T16:21:02.597Z,5.60
2018-01-06T16:23:30.145Z,4.60
2018-01-06T16:25:57.677Z,4.70
2018-01-06T16:28:25.234Z,8.03
2018-01-06T16:30:52.762Z,6.87
2018-01-06T16:33:21.033Z,7.30
2018-01-06T16:35:48.607Z,6.13
2018-01-06T16:38:17.525Z,3.80
2018-01-06T16:40:45.060Z,4.57
2018-01-06T16:43:13.394Z,4.27
2018-01-06T16:45:40.924Z,4.03
2018-01-06T16:48:08.439Z,3.97
2018-01-06T16:50:36.815Z,4.80
2018-01-06T16:53:04.427Z,4.37
2018-01-06T16:55:31.967Z,5.10
2018-01-06T16:57:59.751Z,5.87
2018-01-06T17:00:27.270Z,6.00
2018-01-06T17:02:56.581Z,5.70
2018-01-06T17:05:24.171Z,6.77
2018-01-06T17:07:52.243Z,6.13
2018-01-06T17:10:19.757Z,5.27
2018-01-06T17:12:47.341Z,5.23
2018-01-06T17:15:14.856Z,4.73
2018-01-06T17:17:42.443Z,5.63
2018-01-06T17:20:09.964Z,5.23
2018-01-06T17:22:37.498Z,5.73
2018-01-06T17:25:05.097Z,6.00
2018-01-06T17:27:32.634Z,7.47
2018-01-06T17:30:01.047Z,7.43
2018-01-06T17:32:28.977Z,7.23
2018-01-06T17:34:56.532Z,8.80
2018-01-06T17:37:24.114Z,6.43
2018-01-06T17:39:51.684Z,6.90
2018-01-06T17:42:19.587Z,5.83
2018-01-06T17:44:47.143Z,5.00
2018-01-06T17:47:15.484Z,6.13
2018-01-06T17:49:42.988Z,6.73
2018-01-06T17:52:11.309Z,6.47
2018-01-06T17:54:38.821Z,6.00
2018-01-06T17:57:06.680Z,5.77
2018-01-06T17:59:34.235Z,6.40
2018-01-06T18:02:01.811Z,6.33
2018-01-06T18:04:29.793Z,6.13
2018-01-06T18:06:57.370Z,6.30
2018-01-06T18:09:24.884Z,6.93
2018-01-06T18:11:52.424Z,6.03
2018-01-06T18:14:20.701Z,6.30
2018-01-06T18:16:49.001Z,7.23
2018-01-06T18:19:16.977Z,6.90
2018-01-06T18:21:45.071Z,6.80
2018-01-06T18:24:12.601Z,6.30
2018-01-06T18:26:40.854Z,5.33
2018-01-06T18:29:08.390Z,7.07
2018-01-06T18:31:35.941Z,6.43
2018-01-06T18:34:03.517Z,6.20
2018-01-06T18:36:31.077Z,6.33
2018-01-06T18:38:58.613Z,5.70
2018-01-06T18:41:26.192Z,6.70
2018-01-06T18:43:54.227Z,6.80
2018-01-06T18:46:21.795Z,7.10
2018-01-06T18:48:49.401Z,6.20
2018-01-06T18:51:16.972Z,5.93
2018-01-06T18:53:44.550Z,6.20
2018-01-06T18:56:12.104Z,6.73
2018-01-06T18:58:40.311Z,5.80
2018-01-06T19:01:07.872Z,5.87
2018-01-06T19:03:35.440Z,6.40
2018-01-06T19:06:02.991Z,7.40
2018-01-06T19:08:31.341Z,7.37
2018-01-06T19:10:59.512Z,7.07
2018-01-06T19:13:27.854Z,7.43
2018-01-06T19:15:56.383Z,8.07
2018-01-06T19:18:24.740Z,7.80
2018-01-06T19:20:52.328Z,7.30
2018-01-06T19:23:20.136Z,7.10
2018-01-06T19:25:47.695Z,18.77
2018-01-06T19:28:15.689Z,28.50
2018-01-06T19:30:43.238Z,19.20
2018-01-06T19:33:10.832Z,10.70
2018-01-06T19:35:38.405Z,10.30
2018-01-06T19:38:06.255Z,7.83
2018-01-06T19:40:34.224Z,7.77
2018-01-06T19:43:01.788Z,10.30
2018-01-06T19:45:29.405Z,9.10
2018-01-06T19:47:57.400Z,8.90
2018-01-06T19:50:24.985Z,10.33
2018-01-06T19:52:52.557Z,10.10
2018-01-06T19:55:20.136Z,10.70
2018-01-06T19:57:49.267Z,10.07
2018-01-06T20:00:16.856Z,10.63
2018-01-06T20:02:44.416Z,12.03
2018-01-06T20:05:12.769Z,10.33
2018-01-06T20:07:40.337Z,10.70
2018-01-06T20:10:08.127Z,10.30
2018-01-06T20:12:35.691Z,11.47
2018-01-06T20:15:04.233Z,14.40
2018-01-06T20:17:31.803Z,11.93
2018-01-06T20:20:00.188Z,10.77
2018-01-06T20:22:27.913Z,12.30
2018-01-06T20:24:55.540Z,10.97
2018-01-06T20:27:23.109Z,9.60
2018-01-06T20:29:51.458Z,13.77
2018-01-06T20:32:19.024Z,14.47
2018-01-06T20:34:46.613Z,13.17
2018-01-06T20:37:14.193Z,10.33
2018-01-06T20:39:41.828Z,14.00
2018-01-06T20:42:10.280Z,12.57
2018-01-06T20:44:37.892Z,13.97
2018-01-06T20:47:05.472Z,15.73
2018-01-06T20:49:33.727Z,14.07
2018-01-06T20:52:01.320Z,13.47
2018-01-06T20:54:28.896Z,13.03
2018-01-06T20:56:56.472Z,12.30
2018-01-06T20:59:24.043Z,13.67
2018-01-06T21:01:51.642Z,12.33
2018-01-06T21:04:19.603Z,12.93
2018-01-06T21:06:47.193Z,12.27
2018-01-06T21:09:14.766Z,11.67
2018-01-06T21:11:43.972Z,11.83
2018-01-06T21:14:11.543Z,10.20
2018-01-06T21:16:39.122Z,10.67
2018-01-06T21:19:06.733Z,9.30
2018-01-06T21:21:35.084Z,11.30
2018-01-06T21:24:02.657Z,10.17
2018-01-06T21:26:31.007Z,10.90
2018-01-06T21:28:58.617Z,10.03
2018-01-06T21:31:26.187Z,13.43
2018-01-06T21:33:53.788Z,10.37
2018-01-06T21:36:21.375Z,11.97
2018-01-06T21:38:48.956Z,10.63
2018-01-06T21:41:17.308Z,11.10
2018-01-06T21:43:44.885Z,11.00
2018-01-06T21:46:13.235Z,11.53
2018-01-06T21:48:40.803Z,11.40
2018-01-06T21:51:08.378Z,13.70
2018-01-06T21:53:36.704Z,12.70
2018-01-06T21:56:04.292Z,16.00
2018-01-06T21:58:32.251Z,19.93
2018-01-06T22:00:59.820Z,18.80
2018-01-06T22:03:27.396Z,15.40
2018-01-06T22:05:54.965Z,14.27
2018-01-06T22:08:22.576Z,13.30
2018-01-06T22:10:50.147Z,13.53
2018-01-06T22:13:17.722Z,11.80
2018-01-06T22:15:45.289Z,13.23
2018-01-06T22:18:13.272Z,12.83
2018-01-06T22:20:40.844Z,12.80
2018-01-06T22:23:09.190Z,13.20
2018-01-06T22:25:36.753Z,14.23
2018-01-06T22:28:04.328Z,13.13
2018-01-06T22:30:31.904Z,14.00
2018-01-06T22:32:59.498Z,13.90
2018-01-06T22:35:27.064Z,12.80
2018-01-06T22:37:54.648Z,13.47
2018-01-06T22:40:22.207Z,13.13
2018-01-06T22:42:49.793Z,14.73
2018-01-06T22:45:17.826Z,13.53
2018-01-06T22:47:45.395Z,12.77
2018-01-06T22:50:12.969Z,13.63
2018-01-06T22:52:40.560Z,13.50
2018-01-06T22:55:08.156Z,13.80
2018-01-06T22:57:36.134Z,12.90
2018-01-06T23:00:04.565Z,13.80
2018-01-06T23:02:32.164Z,13.80
2018-01-06T23:05:00.122Z,16.07
2018-01-06T23:07:28.783Z,16.70
2018-01-06T23:09:56.378Z,13.00
2018-01-06T23:12:23.956Z,12.07
2018-01-06T23:14:51.547Z,12.67
2018-01-06T23:17:19.124Z,15.10
2018-01-06T23:19:47.045Z,13.87
2018-01-06T23:22:15.316Z,12.60
2018-01-06T23:24:42.899Z,13.67
2018-01-06T23:27:10.464Z,13.43
2018-01-06T23:29:38.043Z,12.20
2018-01-06T23:32:06.760Z,12.77
2018-01-06T23:34:34.345Z,12.73
2018-01-06T23:37:01.911Z,14.97
2018-01-06T23:39:29.500Z,13.87
2018-01-06T23:41:58.278Z,16.53
2018-01-06T23:44:27.956Z,13.03
2018-01-06T23:46:55.528Z,13.50
2018-01-06T23:49:23.117Z,14.60
2018-01-06T23:51:51.980Z,14.30
2018-01-06T23:54:19.565Z,13.33
2018-01-06T23:56:47.136Z,13.87
2018-01-06T23:59:14.715Z,13.13
